sensor_id;sensor_type;location;lat;lon;timestamp;temperature;humidity
18173;DHT22;9211;48.818;9.312;2023-08-31T00:01:01;16.20;99.90
18173;DHT22;9211;48.818;9.312;2023-08-31T00:03:29;16.20;99.90
18173;DHT22;9211;48.818;9.312;2023-08-31T00:05:56;16.10;99.90
18173;DHT22;9211;48.818;9.312;2023-08-31T00:08:24;16.10;99.90
18173;DHT22;9211;48.818;9.312;2023-08-31T00:10:56;16.00;99.90
18173;DHT22;9211;48.818;9.312;2023-08-31T00:13:23;16.00;99.90
18173;DHT22;9211;48.818;9.312;2023-08-31T00:15:54;16.00;99.90
18173;DHT22;9211;48.818;9.312;2023-08-31T00:18:22;15.90;99.90
18173;DHT22;9211;48.818;9.312;2023-08-31T00:20:49;15.90;99.90
18173;DHT22;9211;48.818;9.312;2023-08-31T00:23:16;16.00;99.90
18173;DHT22;9211;48.818;9.312;2023-08-31T00:25:46;16.10;99.90
18173;DHT22;9211;48.818;9.312;2023-08-31T00:28:14;16.00;99.90
18173;DHT22;9211;48.818;9.312;2023-08-31T00:30:41;16.00;99.90
18173;DHT22;9211;48.818;9.312;2023-08-31T00:33:10;15.90;99.90
18173;DHT22;9211;48.818;9.312;2023-08-31T00:35:37;15.80;99.90
18173;DHT22;9211;48.818;9.312;2023-08-31T00:38:12;16.00;99.90
18173;DHT22;9211;48.818;9.312;2023-08-31T00:40:39;16.10;99.90
18173;DHT22;9211;48.818;9.312;2023-08-31T00:43:09;16.00;99.90
18173;DHT22;9211;48.818;9.312;2023-08-31T00:45:36;16.00;99.90
18173;DHT22;9211;48.818;9.312;2023-08-31T00:48:05;15.90;99.90
18173;DHT22;9211;48.818;9.312;2023-08-31T00:50:32;15.80;99.90
18173;DHT22;9211;48.818;9.312;2023-08-31T00:52:58;15.80;99.90
18173;DHT22;9211;48.818;9.312;2023-08-31T00:55:25;15.70;99.90
18173;DHT22;9211;48.818;9.312;2023-08-31T00:57:52;15.80;99.90
18173;DHT22;9211;48.818;9.312;2023-08-31T01:00:23;15.70;99.90
18173;DHT22;9211;48.818;9.312;2023-08-31T01:02:57;15.70;99.90
18173;DHT22;9211;48.818;9.312;2023-08-31T01:05:36;15.60;99.90
18173;DHT22;9211;48.818;9.312;2023-08-31T01:08:14;15.70;99.90
18173;DHT22;9211;48.818;9.312;2023-08-31T01:10:51;15.60;99.90
18173;DHT22;9211;48.818;9.312;2023-08-31T01:13:24;15.60;99.90
18173;DHT22;9211;48.818;9.312;2023-08-31T01:15:55;15.50;99.90
18173;DHT22;9211;48.818;9.312;2023-08-31T01:18:24;15.40;99.90
18173;DHT22;9211;48.818;9.312;2023-08-31T01:23:51;15.30;99.90
18173;DHT22;9211;48.818;9.312;2023-08-31T01:26:19;15.20;99.90
18173;DHT22;9211;48.818;9.312;2023-08-31T01:28:50;15.30;99.90
18173;DHT22;9211;48.818;9.312;2023-08-31T01:31:17;15.10;99.90
18173;DHT22;9211;48.818;9.312;2023-08-31T01:33:46;15.00;99.90
18173;DHT22;9211;48.818;9.312;2023-08-31T01:36:19;15.20;99.90
18173;DHT22;9211;48.818;9.312;2023-08-31T01:38:51;15.20;99.90
18173;DHT22;9211;48.818;9.312;2023-08-31T01:41:20;15.00;99.90
18173;DHT22;9211;48.818;9.312;2023-08-31T01:43:49;14.90;99.90
18173;DHT22;9211;48.818;9.312;2023-08-31T01:46:18;14.90;99.90
18173;DHT22;9211;48.818;9.312;2023-08-31T01:48:45;14.90;99.90
18173;DHT22;9211;48.818;9.312;2023-08-31T01:51:12;14.70;99.90
18173;DHT22;9211;48.818;9.312;2023-08-31T01:53:39;14.80;99.90
18173;DHT22;9211;48.818;9.312;2023-08-31T01:56:08;14.90;99.90
18173;DHT22;9211;48.818;9.312;2023-08-31T01:58:36;15.00;99.90
18173;DHT22;9211;48.818;9.312;2023-08-31T02:03:54;14.90;99.90
18173;DHT22;9211;48.818;9.312;2023-08-31T02:06:21;14.80;99.90
18173;DHT22;9211;48.818;9.312;2023-08-31T02:08:48;14.80;99.90
18173;DHT22;9211;48.818;9.312;2023-08-31T02:11:18;14.80;99.90
18173;DHT22;9211;48.818;9.312;2023-08-31T02:13:45;14.80;99.90
18173;DHT22;9211;48.818;9.312;2023-08-31T02:16:12;14.90;99.90
18173;DHT22;9211;48.818;9.312;2023-08-31T02:18:39;15.10;99.90
18173;DHT22;9211;48.818;9.312;2023-08-31T02:21:06;15.00;99.90
18173;DHT22;9211;48.818;9.312;2023-08-31T02:23:33;15.10;99.90
18173;DHT22;9211;48.818;9.312;2023-08-31T02:26:01;15.20;99.90
18173;DHT22;9211;48.818;9.312;2023-08-31T02:28:29;15.10;99.90
18173;DHT22;9211;48.818;9.312;2023-08-31T02:31:02;15.20;99.90
18173;DHT22;9211;48.818;9.312;2023-08-31T02:33:30;15.30;99.90
18173;DHT22;9211;48.818;9.312;2023-08-31T02:35:58;15.30;99.90
18173;DHT22;9211;48.818;9.312;2023-08-31T02:38:24;15.30;99.90
18173;DHT22;9211;48.818;9.312;2023-08-31T02:40:51;15.40;99.90
18173;DHT22;9211;48.818;9.312;2023-08-31T02:43:18;15.40;99.90
18173;DHT22;9211;48.818;9.312;2023-08-31T02:45:46;15.30;99.90
18173;DHT22;9211;48.818;9.312;2023-08-31T02:48:13;15.30;99.90
18173;DHT22;9211;48.818;9.312;2023-08-31T02:50:41;15.30;99.90
18173;DHT22;9211;48.818;9.312;2023-08-31T02:53:08;15.40;99.90
18173;DHT22;9211;48.818;9.312;2023-08-31T02:55:34;15.30;99.90
18173;DHT22;9211;48.818;9.312;2023-08-31T02:58:01;15.30;99.90
18173;DHT22;9211;48.818;9.312;2023-08-31T03:00:29;15.30;99.90
18173;DHT22;9211;48.818;9.312;2023-08-31T03:02:57;15.30;99.90
18173;DHT22;9211;48.818;9.312;2023-08-31T03:05:24;15.30;99.90
18173;DHT22;9211;48.818;9.312;2023-08-31T03:07:52;15.30;99.90
18173;DHT22;9211;48.818;9.312;2023-08-31T03:10:20;15.30;99.90
18173;DHT22;9211;48.818;9.312;2023-08-31T03:12:48;14.90;99.90
18173;DHT22;9211;48.818;9.312;2023-08-31T03:15:15;15.20;99.90
18173;DHT22;9211;48.818;9.312;2023-08-31T03:17:43;15.30;99.90
18173;DHT22;9211;48.818;9.312;2023-08-31T03:20:11;15.20;99.90
18173;DHT22;9211;48.818;9.312;2023-08-31T03:22:38;15.20;99.90
18173;DHT22;9211;48.818;9.312;2023-08-31T03:25:06;15.10;99.90
18173;DHT22;9211;48.818;9.312;2023-08-31T03:27:33;15.00;99.90
18173;DHT22;9211;48.818;9.312;2023-08-31T03:30:00;15.00;99.90
18173;DHT22;9211;48.818;9.312;2023-08-31T03:32:28;15.00;99.90
18173;DHT22;9211;48.818;9.312;2023-08-31T03:34:55;14.90;99.90
18173;DHT22;9211;48.818;9.312;2023-08-31T03:37:23;14.90;99.90
18173;DHT22;9211;48.818;9.312;2023-08-31T03:39:50;15.00;99.90
18173;DHT22;9211;48.818;9.312;2023-08-31T03:42:17;14.90;99.90
18173;DHT22;9211;48.818;9.312;2023-08-31T03:44:43;14.90;99.90
18173;DHT22;9211;48.818;9.312;2023-08-31T03:47:10;14.80;99.90
18173;DHT22;9211;48.818;9.312;2023-08-31T03:49:38;14.90;99.90
18173;DHT22;9211;48.818;9.312;2023-08-31T03:52:06;14.90;99.90
18173;DHT22;9211;48.818;9.312;2023-08-31T03:54:35;14.90;99.90
18173;DHT22;9211;48.818;9.312;2023-08-31T03:57:02;14.90;99.90
18173;DHT22;9211;48.818;9.312;2023-08-31T03:59:29;14.90;99.90
18173;DHT22;9211;48.818;9.312;2023-08-31T04:01:56;14.80;99.90
18173;DHT22;9211;48.818;9.312;2023-08-31T04:04:25;14.70;99.90
18173;DHT22;9211;48.818;9.312;2023-08-31T04:06:52;14.80;99.90
18173;DHT22;9211;48.818;9.312;2023-08-31T04:09:19;14.80;99.90
18173;DHT22;9211;48.818;9.312;2023-08-31T04:11:47;14.80;99.90
18173;DHT22;9211;48.818;9.312;2023-08-31T04:14:14;14.90;99.90
18173;DHT22;9211;48.818;9.312;2023-08-31T04:16:40;15.10;99.90
18173;DHT22;9211;48.818;9.312;2023-08-31T04:19:08;15.10;99.90
18173;DHT22;9211;48.818;9.312;2023-08-31T04:21:34;15.10;99.90
18173;DHT22;9211;48.818;9.312;2023-08-31T04:24:03;15.00;99.90
18173;DHT22;9211;48.818;9.312;2023-08-31T04:26:30;15.00;99.90
18173;DHT22;9211;48.818;9.312;2023-08-31T04:28:58;15.00;99.90
18173;DHT22;9211;48.818;9.312;2023-08-31T04:31:25;14.90;99.90
18173;DHT22;9211;48.818;9.312;2023-08-31T04:33:52;14.80;99.90
18173;DHT22;9211;48.818;9.312;2023-08-31T04:36:19;14.70;99.90
18173;DHT22;9211;48.818;9.312;2023-08-31T04:38:48;14.70;99.90
18173;DHT22;9211;48.818;9.312;2023-08-31T04:41:15;14.50;99.90
18173;DHT22;9211;48.818;9.312;2023-08-31T04:43:41;14.50;99.90
18173;DHT22;9211;48.818;9.312;2023-08-31T04:46:10;14.50;99.90
18173;DHT22;9211;48.818;9.312;2023-08-31T04:48:36;14.50;99.90
18173;DHT22;9211;48.818;9.312;2023-08-31T04:51:05;14.50;99.90
18173;DHT22;9211;48.818;9.312;2023-08-31T04:53:32;14.50;99.90
18173;DHT22;9211;48.818;9.312;2023-08-31T04:55:59;14.60;99.90
18173;DHT22;9211;48.818;9.312;2023-08-31T04:58:25;15.10;99.90
18173;DHT22;9211;48.818;9.312;2023-08-31T05:00:52;14.50;99.90
18173;DHT22;9211;48.818;9.312;2023-08-31T05:03:20;14.50;99.90
18173;DHT22;9211;48.818;9.312;2023-08-31T05:05:49;14.60;99.90
18173;DHT22;9211;48.818;9.312;2023-08-31T05:08:16;14.70;99.90
18173;DHT22;9211;48.818;9.312;2023-08-31T05:10:45;14.60;99.90
18173;DHT22;9211;48.818;9.312;2023-08-31T05:13:11;14.80;99.90
18173;DHT22;9211;48.818;9.312;2023-08-31T05:15:38;14.90;99.90
18173;DHT22;9211;48.818;9.312;2023-08-31T05:18:05;14.90;99.90
18173;DHT22;9211;48.818;9.312;2023-08-31T05:20:35;14.80;99.90
18173;DHT22;9211;48.818;9.312;2023-08-31T05:23:02;14.70;99.90
18173;DHT22;9211;48.818;9.312;2023-08-31T05:25:29;14.80;99.90
18173;DHT22;9211;48.818;9.312;2023-08-31T05:27:56;14.70;99.90
18173;DHT22;9211;48.818;9.312;2023-08-31T05:30:23;14.60;99.90
18173;DHT22;9211;48.818;9.312;2023-08-31T05:32:49;14.50;99.90
18173;DHT22;9211;48.818;9.312;2023-08-31T05:35:17;14.60;99.90
18173;DHT22;9211;48.818;9.312;2023-08-31T05:37:45;14.70;99.90
18173;DHT22;9211;48.818;9.312;2023-08-31T05:40:12;14.80;99.90
18173;DHT22;9211;48.818;9.312;2023-08-31T05:42:39;14.80;99.90
18173;DHT22;9211;48.818;9.312;2023-08-31T05:45:07;14.90;99.90
18173;DHT22;9211;48.818;9.312;2023-08-31T05:47:34;15.00;99.90
18173;DHT22;9211;48.818;9.312;2023-08-31T05:50:01;16.70;99.90
18173;DHT22;9211;48.818;9.312;2023-08-31T05:52:28;15.10;99.90
18173;DHT22;9211;48.818;9.312;2023-08-31T05:54:56;15.20;99.90
18173;DHT22;9211;48.818;9.312;2023-08-31T05:57:23;15.20;99.90
18173;DHT22;9211;48.818;9.312;2023-08-31T05:59:50;15.20;99.90
18173;DHT22;9211;48.818;9.312;2023-08-31T06:02:17;15.30;99.90
18173;DHT22;9211;48.818;9.312;2023-08-31T06:04:44;15.40;99.90
18173;DHT22;9211;48.818;9.312;2023-08-31T06:07:10;15.50;99.90
18173;DHT22;9211;48.818;9.312;2023-08-31T06:09:38;15.70;99.90
18173;DHT22;9211;48.818;9.312;2023-08-31T06:12:06;15.70;99.90
18173;DHT22;9211;48.818;9.312;2023-08-31T06:14:33;15.80;99.90
18173;DHT22;9211;48.818;9.312;2023-08-31T06:17:00;15.80;99.90
18173;DHT22;9211;48.818;9.312;2023-08-31T06:19:28;15.90;99.90
18173;DHT22;9211;48.818;9.312;2023-08-31T06:21:55;15.90;99.90
18173;DHT22;9211;48.818;9.312;2023-08-31T06:24:21;15.90;99.90
18173;DHT22;9211;48.818;9.312;2023-08-31T06:26:48;15.90;99.90
18173;DHT22;9211;48.818;9.312;2023-08-31T06:29:17;16.00;99.90
18173;DHT22;9211;48.818;9.312;2023-08-31T06:31:43;16.00;99.90
18173;DHT22;9211;48.818;9.312;2023-08-31T06:34:10;16.00;99.90
18173;DHT22;9211;48.818;9.312;2023-08-31T06:36:37;16.00;99.90
18173;DHT22;9211;48.818;9.312;2023-08-31T06:39:05;16.10;99.90
18173;DHT22;9211;48.818;9.312;2023-08-31T06:41:32;16.10;99.90
18173;DHT22;9211;48.818;9.312;2023-08-31T06:43:59;16.20;99.90
18173;DHT22;9211;48.818;9.312;2023-08-31T06:46:27;16.20;99.90
18173;DHT22;9211;48.818;9.312;2023-08-31T06:48:54;16.30;99.90
18173;DHT22;9211;48.818;9.312;2023-08-31T06:51:21;16.30;99.90
18173;DHT22;9211;48.818;9.312;2023-08-31T06:53:48;16.40;99.90
18173;DHT22;9211;48.818;9.312;2023-08-31T06:56:15;16.40;99.90
18173;DHT22;9211;48.818;9.312;2023-08-31T06:58:42;16.50;99.90
18173;DHT22;9211;48.818;9.312;2023-08-31T07:01:09;16.50;99.90
18173;DHT22;9211;48.818;9.312;2023-08-31T07:03:37;16.50;99.90
18173;DHT22;9211;48.818;9.312;2023-08-31T07:06:04;16.60;99.90
18173;DHT22;9211;48.818;9.312;2023-08-31T07:08:30;16.80;99.90
18173;DHT22;9211;48.818;9.312;2023-08-31T07:10:57;16.90;99.90
18173;DHT22;9211;48.818;9.312;2023-08-31T07:13:25;17.00;99.90
18173;DHT22;9211;48.818;9.312;2023-08-31T07:15:51;17.00;99.90
18173;DHT22;9211;48.818;9.312;2023-08-31T07:18:19;17.00;99.90
18173;DHT22;9211;48.818;9.312;2023-08-31T07:20:47;17.10;99.90
18173;DHT22;9211;48.818;9.312;2023-08-31T07:23:14;17.20;99.90
18173;DHT22;9211;48.818;9.312;2023-08-31T07:25:41;17.30;99.90
18173;DHT22;9211;48.818;9.312;2023-08-31T07:28:09;17.90;99.90
18173;DHT22;9211;48.818;9.312;2023-08-31T07:30:36;17.40;99.90
18173;DHT22;9211;48.818;9.312;2023-08-31T07:33:03;17.50;99.90
18173;DHT22;9211;48.818;9.312;2023-08-31T07:35:30;17.60;99.90
18173;DHT22;9211;48.818;9.312;2023-08-31T07:37:58;17.60;99.90
18173;DHT22;9211;48.818;9.312;2023-08-31T07:40:25;17.70;99.90
18173;DHT22;9211;48.818;9.312;2023-08-31T07:42:52;17.50;99.90
18173;DHT22;9211;48.818;9.312;2023-08-31T07:45:19;17.50;99.90
18173;DHT22;9211;48.818;9.312;2023-08-31T07:47:46;17.60;99.90
18173;DHT22;9211;48.818;9.312;2023-08-31T07:50:13;17.60;99.90
18173;DHT22;9211;48.818;9.312;2023-08-31T07:52:39;17.40;99.90
18173;DHT22;9211;48.818;9.312;2023-08-31T07:55:08;17.40;99.90
18173;DHT22;9211;48.818;9.312;2023-08-31T07:57:35;17.40;99.90
18173;DHT22;9211;48.818;9.312;2023-08-31T08:00:03;17.40;99.90
18173;DHT22;9211;48.818;9.312;2023-08-31T08:02:38;17.50;99.90
18173;DHT22;9211;48.818;9.312;2023-08-31T08:05:05;17.60;99.90
18173;DHT22;9211;48.818;9.312;2023-08-31T08:07:32;17.70;99.90
18173;DHT22;9211;48.818;9.312;2023-08-31T08:09:59;17.70;99.90
18173;DHT22;9211;48.818;9.312;2023-08-31T08:12:27;17.80;99.90
18173;DHT22;9211;48.818;9.312;2023-08-31T08:14:54;17.80;99.90
18173;DHT22;9211;48.818;9.312;2023-08-31T08:17:21;17.90;99.90
18173;DHT22;9211;48.818;9.312;2023-08-31T08:19:48;17.90;99.90
18173;DHT22;9211;48.818;9.312;2023-08-31T08:22:15;18.00;99.90
18173;DHT22;9211;48.818;9.312;2023-08-31T08:24:41;18.10;99.90
18173;DHT22;9211;48.818;9.312;2023-08-31T08:27:08;18.30;99.90
18173;DHT22;9211;48.818;9.312;2023-08-31T08:29:36;18.40;99.90
18173;DHT22;9211;48.818;9.312;2023-08-31T08:32:04;18.60;99.90
18173;DHT22;9211;48.818;9.312;2023-08-31T08:34:31;18.70;99.90
18173;DHT22;9211;48.818;9.312;2023-08-31T08:36:58;18.70;99.90
18173;DHT22;9211;48.818;9.312;2023-08-31T08:39:25;18.70;99.90
18173;DHT22;9211;48.818;9.312;2023-08-31T08:41:54;18.60;99.90
18173;DHT22;9211;48.818;9.312;2023-08-31T08:44:25;18.50;99.90
18173;DHT22;9211;48.818;9.312;2023-08-31T08:46:53;18.60;99.90
18173;DHT22;9211;48.818;9.312;2023-08-31T08:49:21;18.40;99.90
18173;DHT22;9211;48.818;9.312;2023-08-31T08:51:50;18.40;99.90
18173;DHT22;9211;48.818;9.312;2023-08-31T08:54:18;18.50;99.90
18173;DHT22;9211;48.818;9.312;2023-08-31T08:56:45;18.60;99.90
18173;DHT22;9211;48.818;9.312;2023-08-31T08:59:12;18.90;99.90
18173;DHT22;9211;48.818;9.312;2023-08-31T09:01:40;19.10;99.90
18173;DHT22;9211;48.818;9.312;2023-08-31T09:04:09;19.00;99.90
18173;DHT22;9211;48.818;9.312;2023-08-31T09:06:36;19.20;99.90
18173;DHT22;9211;48.818;9.312;2023-08-31T09:09:03;19.20;99.90
18173;DHT22;9211;48.818;9.312;2023-08-31T09:11:30;19.30;99.90
18173;DHT22;9211;48.818;9.312;2023-08-31T09:13:57;19.30;99.90
18173;DHT22;9211;48.818;9.312;2023-08-31T09:16:25;19.30;99.90
18173;DHT22;9211;48.818;9.312;2023-08-31T09:18:54;19.30;99.90
18173;DHT22;9211;48.818;9.312;2023-08-31T09:21:22;19.30;99.90
18173;DHT22;9211;48.818;9.312;2023-08-31T09:23:56;19.20;99.90
18173;DHT22;9211;48.818;9.312;2023-08-31T09:26:23;19.10;99.90
18173;DHT22;9211;48.818;9.312;2023-08-31T09:28:50;19.30;99.90
18173;DHT22;9211;48.818;9.312;2023-08-31T09:31:18;19.30;99.90
18173;DHT22;9211;48.818;9.312;2023-08-31T09:33:50;19.30;99.90
18173;DHT22;9211;48.818;9.312;2023-08-31T09:36:17;19.20;99.90
18173;DHT22;9211;48.818;9.312;2023-08-31T09:38:46;19.10;99.90
18173;DHT22;9211;48.818;9.312;2023-08-31T09:41:13;18.90;99.90
18173;DHT22;9211;48.818;9.312;2023-08-31T09:43:40;18.90;99.90
18173;DHT22;9211;48.818;9.312;2023-08-31T09:46:09;18.80;99.90
18173;DHT22;9211;48.818;9.312;2023-08-31T09:48:37;18.90;99.90
18173;DHT22;9211;48.818;9.312;2023-08-31T09:51:06;18.80;99.90
18173;DHT22;9211;48.818;9.312;2023-08-31T09:53:36;18.90;99.90
18173;DHT22;9211;48.818;9.312;2023-08-31T09:56:05;19.00;99.90
18173;DHT22;9211;48.818;9.312;2023-08-31T09:58:32;19.00;99.90
18173;DHT22;9211;48.818;9.312;2023-08-31T10:01:00;19.10;99.90
18173;DHT22;9211;48.818;9.312;2023-08-31T10:03:28;19.10;99.90
18173;DHT22;9211;48.818;9.312;2023-08-31T10:05:55;19.10;99.90
18173;DHT22;9211;48.818;9.312;2023-08-31T10:08:23;19.10;99.90
18173;DHT22;9211;48.818;9.312;2023-08-31T10:10:52;19.10;99.90
18173;DHT22;9211;48.818;9.312;2023-08-31T10:13:21;19.10;99.90
18173;DHT22;9211;48.818;9.312;2023-08-31T10:15:49;19.10;99.90
18173;DHT22;9211;48.818;9.312;2023-08-31T10:18:16;19.30;99.90
18173;DHT22;9211;48.818;9.312;2023-08-31T10:20:44;19.30;99.90
18173;DHT22;9211;48.818;9.312;2023-08-31T10:23:11;19.60;99.90
18173;DHT22;9211;48.818;9.312;2023-08-31T10:26:02;19.80;99.90
18173;DHT22;9211;48.818;9.312;2023-08-31T10:28:39;19.90;99.90
18173;DHT22;9211;48.818;9.312;2023-08-31T10:31:07;20.10;99.90
18173;DHT22;9211;48.818;9.312;2023-08-31T10:33:39;20.10;99.90
18173;DHT22;9211;48.818;9.312;2023-08-31T10:36:11;20.40;99.90
18173;DHT22;9211;48.818;9.312;2023-08-31T10:38:38;20.40;99.90
18173;DHT22;9211;48.818;9.312;2023-08-31T10:41:18;20.60;99.90
18173;DHT22;9211;48.818;9.312;2023-08-31T10:43:49;20.40;99.90
18173;DHT22;9211;48.818;9.312;2023-08-31T10:46:18;20.30;99.90
18173;DHT22;9211;48.818;9.312;2023-08-31T10:48:52;20.40;99.90
18173;DHT22;9211;48.818;9.312;2023-08-31T10:51:22;20.40;99.90
18173;DHT22;9211;48.818;9.312;2023-08-31T10:53:49;20.30;99.90
18173;DHT22;9211;48.818;9.312;2023-08-31T10:56:16;20.20;99.90
18173;DHT22;9211;48.818;9.312;2023-08-31T10:58:52;20.40;99.90
18173;DHT22;9211;48.818;9.312;2023-08-31T11:04:17;20.90;99.90
18173;DHT22;9211;48.818;9.312;2023-08-31T11:06:44;21.00;99.90
18173;DHT22;9211;48.818;9.312;2023-08-31T11:09:19;21.00;99.90
18173;DHT22;9211;48.818;9.312;2023-08-31T11:11:46;20.90;99.90
18173;DHT22;9211;48.818;9.312;2023-08-31T11:14:15;21.00;99.90
18173;DHT22;9211;48.818;9.312;2023-08-31T11:16:43;21.20;99.90
18173;DHT22;9211;48.818;9.312;2023-08-31T11:19:10;21.10;99.90
18173;DHT22;9211;48.818;9.312;2023-08-31T11:21:37;21.00;99.90
18173;DHT22;9211;48.818;9.312;2023-08-31T11:24:04;21.10;99.90
18173;DHT22;9211;48.818;9.312;2023-08-31T11:26:32;20.80;99.90
18173;DHT22;9211;48.818;9.312;2023-08-31T11:28:59;20.70;99.90
18173;DHT22;9211;48.818;9.312;2023-08-31T11:31:27;20.60;99.90
18173;DHT22;9211;48.818;9.312;2023-08-31T11:33:54;20.70;99.90
18173;DHT22;9211;48.818;9.312;2023-08-31T11:36:22;20.70;99.90
18173;DHT22;9211;48.818;9.312;2023-08-31T11:38:51;20.80;99.90
18173;DHT22;9211;48.818;9.312;2023-08-31T11:41:18;20.80;99.90
18173;DHT22;9211;48.818;9.312;2023-08-31T11:43:47;20.80;99.90
18173;DHT22;9211;48.818;9.312;2023-08-31T11:46:14;20.70;99.90
18173;DHT22;9211;48.818;9.312;2023-08-31T11:48:43;21.00;99.90
18173;DHT22;9211;48.818;9.312;2023-08-31T11:51:10;21.10;99.90
18173;DHT22;9211;48.818;9.312;2023-08-31T11:53:37;21.20;99.90
18173;DHT22;9211;48.818;9.312;2023-08-31T11:56:05;21.30;99.90
18173;DHT22;9211;48.818;9.312;2023-08-31T11:58:31;21.20;99.90
18173;DHT22;9211;48.818;9.312;2023-08-31T12:00:59;21.30;99.90
18173;DHT22;9211;48.818;9.312;2023-08-31T12:03:26;21.20;99.90
18173;DHT22;9211;48.818;9.312;2023-08-31T12:05:54;21.20;99.90
18173;DHT22;9211;48.818;9.312;2023-08-31T12:08:25;21.10;99.90
18173;DHT22;9211;48.818;9.312;2023-08-31T12:10:52;21.10;99.90
18173;DHT22;9211;48.818;9.312;2023-08-31T12:13:20;21.30;99.90
18173;DHT22;9211;48.818;9.312;2023-08-31T12:15:47;21.30;99.90
18173;DHT22;9211;48.818;9.312;2023-08-31T12:18:19;21.30;99.90
18173;DHT22;9211;48.818;9.312;2023-08-31T12:20:46;21.40;99.90
18173;DHT22;9211;48.818;9.312;2023-08-31T12:23:14;21.50;99.90
18173;DHT22;9211;48.818;9.312;2023-08-31T12:25:46;21.40;99.90
18173;DHT22;9211;48.818;9.312;2023-08-31T12:28:13;21.30;99.90
18173;DHT22;9211;48.818;9.312;2023-08-31T12:30:42;21.30;99.90
18173;DHT22;9211;48.818;9.312;2023-08-31T12:33:09;21.30;99.90
18173;DHT22;9211;48.818;9.312;2023-08-31T12:35:36;21.40;99.90
18173;DHT22;9211;48.818;9.312;2023-08-31T12:38:04;21.40;99.90
18173;DHT22;9211;48.818;9.312;2023-08-31T12:40:32;21.50;99.90
18173;DHT22;9211;48.818;9.312;2023-08-31T12:42:59;21.60;99.90
18173;DHT22;9211;48.818;9.312;2023-08-31T12:45:26;21.70;99.90
18173;DHT22;9211;48.818;9.312;2023-08-31T12:47:52;22.10;99.90
18173;DHT22;9211;48.818;9.312;2023-08-31T12:50:19;22.00;99.90
18173;DHT22;9211;48.818;9.312;2023-08-31T12:52:46;22.30;99.90
18173;DHT22;9211;48.818;9.312;2023-08-31T12:55:13;22.40;99.90
18173;DHT22;9211;48.818;9.312;2023-08-31T12:57:42;22.50;99.90
18173;DHT22;9211;48.818;9.312;2023-08-31T13:00:09;22.70;99.90
18173;DHT22;9211;48.818;9.312;2023-08-31T13:02:38;22.80;99.90
18173;DHT22;9211;48.818;9.312;2023-08-31T13:05:05;22.60;99.90
18173;DHT22;9211;48.818;9.312;2023-08-31T13:07:32;22.50;99.90
18173;DHT22;9211;48.818;9.312;2023-08-31T13:10:00;22.60;99.90
18173;DHT22;9211;48.818;9.312;2023-08-31T13:12:26;22.20;99.90
18173;DHT22;9211;48.818;9.312;2023-08-31T13:14:55;22.20;99.90
18173;DHT22;9211;48.818;9.312;2023-08-31T13:17:22;21.90;99.90
18173;DHT22;9211;48.818;9.312;2023-08-31T13:19:52;21.90;99.90
18173;DHT22;9211;48.818;9.312;2023-08-31T13:22:19;21.50;99.90
18173;DHT22;9211;48.818;9.312;2023-08-31T13:24:45;21.60;99.90
18173;DHT22;9211;48.818;9.312;2023-08-31T13:27:12;21.60;99.90
18173;DHT22;9211;48.818;9.312;2023-08-31T13:29:39;21.70;99.90
18173;DHT22;9211;48.818;9.312;2023-08-31T13:32:08;21.80;99.90
18173;DHT22;9211;48.818;9.312;2023-08-31T13:34:35;21.90;99.90
18173;DHT22;9211;48.818;9.312;2023-08-31T13:37:02;22.00;99.90
18173;DHT22;9211;48.818;9.312;2023-08-31T13:39:30;22.10;99.90
18173;DHT22;9211;48.818;9.312;2023-08-31T13:41:57;22.30;99.90
18173;DHT22;9211;48.818;9.312;2023-08-31T13:44:23;22.40;99.60
18173;DHT22;9211;48.818;9.312;2023-08-31T13:46:51;22.50;99.20
18173;DHT22;9211;48.818;9.312;2023-08-31T13:49:19;22.70;99.20
18173;DHT22;9211;48.818;9.312;2023-08-31T13:51:46;22.80;99.00
18173;DHT22;9211;48.818;9.312;2023-08-31T13:54:13;22.70;99.30
18173;DHT22;9211;48.818;9.312;2023-08-31T13:56:40;22.80;99.90
18173;DHT22;9211;48.818;9.312;2023-08-31T13:59:08;22.90;99.90
18173;DHT22;9211;48.818;9.312;2023-08-31T14:01:35;22.90;98.40
18173;DHT22;9211;48.818;9.312;2023-08-31T14:04:04;22.90;98.20
18173;DHT22;9211;48.818;9.312;2023-08-31T14:06:32;23.00;99.20
18173;DHT22;9211;48.818;9.312;2023-08-31T14:08:59;22.80;99.90
18173;DHT22;9211;48.818;9.312;2023-08-31T14:11:26;22.60;99.90
18173;DHT22;9211;48.818;9.312;2023-08-31T14:14:01;22.60;99.90
18173;DHT22;9211;48.818;9.312;2023-08-31T14:16:30;22.30;99.90
18173;DHT22;9211;48.818;9.312;2023-08-31T14:18:57;22.10;99.90
18173;DHT22;9211;48.818;9.312;2023-08-31T14:21:23;22.00;99.90
18173;DHT22;9211;48.818;9.312;2023-08-31T14:23:52;22.00;99.90
18173;DHT22;9211;48.818;9.312;2023-08-31T14:26:21;21.80;99.90
18173;DHT22;9211;48.818;9.312;2023-08-31T14:28:49;21.60;99.90
18173;DHT22;9211;48.818;9.312;2023-08-31T14:31:16;21.50;99.90
18173;DHT22;9211;48.818;9.312;2023-08-31T14:33:43;21.50;99.90
18173;DHT22;9211;48.818;9.312;2023-08-31T14:36:10;21.50;99.90
18173;DHT22;9211;48.818;9.312;2023-08-31T14:38:37;21.40;99.90
18173;DHT22;9211;48.818;9.312;2023-08-31T14:41:06;21.40;99.90
18173;DHT22;9211;48.818;9.312;2023-08-31T14:43:32;21.40;99.90
18173;DHT22;9211;48.818;9.312;2023-08-31T14:46:00;21.40;99.90
18173;DHT22;9211;48.818;9.312;2023-08-31T14:48:27;21.40;99.90
18173;DHT22;9211;48.818;9.312;2023-08-31T14:50:54;21.40;99.90
18173;DHT22;9211;48.818;9.312;2023-08-31T14:53:21;21.30;99.90
18173;DHT22;9211;48.818;9.312;2023-08-31T14:55:49;21.20;99.90
18173;DHT22;9211;48.818;9.312;2023-08-31T14:58:17;21.10;99.90
18173;DHT22;9211;48.818;9.312;2023-08-31T15:00:44;21.00;99.90
18173;DHT22;9211;48.818;9.312;2023-08-31T15:03:11;21.00;99.90
18173;DHT22;9211;48.818;9.312;2023-08-31T15:05:38;21.00;99.90
18173;DHT22;9211;48.818;9.312;2023-08-31T15:08:07;21.10;99.90
18173;DHT22;9211;48.818;9.312;2023-08-31T15:10:33;21.10;99.90
18173;DHT22;9211;48.818;9.312;2023-08-31T15:13:00;21.10;99.90
18173;DHT22;9211;48.818;9.312;2023-08-31T15:15:29;21.10;99.90
18173;DHT22;9211;48.818;9.312;2023-08-31T15:17:56;21.10;99.90
18173;DHT22;9211;48.818;9.312;2023-08-31T15:20:23;20.90;99.90
18173;DHT22;9211;48.818;9.312;2023-08-31T15:22:50;21.10;99.90
18173;DHT22;9211;48.818;9.312;2023-08-31T15:25:17;21.10;99.90
18173;DHT22;9211;48.818;9.312;2023-08-31T15:27:44;21.00;99.90
18173;DHT22;9211;48.818;9.312;2023-08-31T15:30:12;20.90;99.90
18173;DHT22;9211;48.818;9.312;2023-08-31T15:32:42;21.00;99.90
18173;DHT22;9211;48.818;9.312;2023-08-31T15:35:09;21.00;99.90
18173;DHT22;9211;48.818;9.312;2023-08-31T15:37:36;21.00;99.90
18173;DHT22;9211;48.818;9.312;2023-08-31T15:40:03;21.00;99.90
18173;DHT22;9211;48.818;9.312;2023-08-31T15:42:30;21.10;99.90
18173;DHT22;9211;48.818;9.312;2023-08-31T15:44:56;21.20;99.90
18173;DHT22;9211;48.818;9.312;2023-08-31T15:47:23;21.10;99.90
18173;DHT22;9211;48.818;9.312;2023-08-31T15:49:52;21.10;99.90
18173;DHT22;9211;48.818;9.312;2023-08-31T15:52:18;21.10;99.90
18173;DHT22;9211;48.818;9.312;2023-08-31T15:54:45;21.00;99.90
18173;DHT22;9211;48.818;9.312;2023-08-31T15:57:12;21.10;99.90